Time;durP1;ratioP1;P1;durP2;ratioP2;P2;SDS_P1;SDS_P2;PMS_P1;PMS_P2;Temp;Humidity;BMP_temperature;BMP_pressure;BME280_temperature;BME280_humidity;BME280_pressure;Samples;Min_cycle;Max_cycle;Signal;HPM_P1;HPM_P2
2022/02/27 00:20:29;;;;;;;12.52;11.23;;;;;;;;;;5162704;27;20215;-65
2022/02/27 00:22:56;;;;;;;12.18;10.25;;;;;;;;;;5159029;27;20168;-64
2022/02/27 00:25:22;;;;;;;12.85;10.57;;;;;;;;;;5180437;27;20066;-67
2022/02/27 00:27:48;;;;;;;12.77;10.52;;;;;;;;;;5180329;27;20481;-65
2022/02/27 00:30:14;;;;;;;11.98;10.77;;;;;;;;;;5180355;27;20078;-65
2022/02/27 00:32:40;;;;;;;11.45;10.25;;;;;;;;;;5180280;27;20064;-70
2022/02/27 00:35:07;;;;;;;13.00;10.50;;;;;;;;;;5144126;27;20209;-71
2022/02/27 00:37:34;;;;;;;12.32;11.12;;;;;;;;;;5161578;27;20074;-71
2022/02/27 00:40:00;;;;;;;12.10;10.73;;;;;;;;;;5161548;27;20485;-71
2022/02/27 00:42:26;;;;;;;12.48;10.95;;;;;;;;;;5180238;27;20101;-71
2022/02/27 00:44:52;;;;;;;14.55;10.68;;;;;;;;;;5161121;27;20094;-66
2022/02/27 00:47:18;;;;;;;18.10;12.10;;;;;;;;;;5180198;27;20091;-64
2022/02/27 00:49:44;;;;;;;12.52;11.20;;;;;;;;;;5180269;27;20094;-67
2022/02/27 00:52:10;;;;;;;12.25;11.00;;;;;;;;;;5180333;27;20085;-66
2022/02/27 00:54:36;;;;;;;12.88;11.45;;;;;;;;;;5180191;27;20102;-67
2022/02/27 00:57:03;;;;;;;12.82;11.20;;;;;;;;;;5180230;27;20113;-67
2022/02/27 00:59:29;;;;;;;18.02;11.05;;;;;;;;;;5179976;27;20441;-71
2022/02/27 01:01:55;;;;;;;12.73;11.50;;;;;;;;;;5144014;27;20082;-70
2022/02/27 01:04:21;;;;;;;12.70;11.25;;;;;;;;;;5180473;27;20089;-71
2022/02/27 01:06:47;;;;;;;13.07;11.02;;;;;;;;;;5180291;27;20082;-70
2022/02/27 01:09:13;;;;;;;13.75;10.40;;;;;;;;;;5161322;27;20187;-72
2022/02/27 01:11:39;;;;;;;13.35;11.90;;;;;;;;;;5180288;27;20484;-72
2022/02/27 01:14:05;;;;;;;14.48;11.63;;;;;;;;;;5180420;27;20098;-71
2022/02/27 01:16:32;;;;;;;16.77;11.57;;;;;;;;;;5180369;27;20093;-72
2022/02/27 01:18:58;;;;;;;13.45;11.98;;;;;;;;;;5180336;27;20093;-71
2022/02/27 01:21:24;;;;;;;14.00;12.13;;;;;;;;;;5160831;27;20082;-71
2022/02/27 01:23:50;;;;;;;13.70;11.50;;;;;;;;;;5179465;27;20088;-71
2022/02/27 01:26:16;;;;;;;12.77;11.38;;;;;;;;;;5160947;27;20209;-71
2022/02/27 01:28:42;;;;;;;15.23;11.77;;;;;;;;;;5180160;27;20098;-72
2022/02/27 01:31:08;;;;;;;12.23;10.88;;;;;;;;;;5144000;27;20089;-72
2022/02/27 01:33:34;;;;;;;14.13;11.65;;;;;;;;;;5161131;27;20391;-72
2022/02/27 01:36:00;;;;;;;12.40;11.20;;;;;;;;;;5180151;27;20066;-73
2022/02/27 01:38:27;;;;;;;16.77;11.95;;;;;;;;;;5161424;27;20078;-73
2022/02/27 01:40:53;;;;;;;12.60;11.07;;;;;;;;;;5160903;27;20062;-73
2022/02/27 01:43:19;;;;;;;12.40;11.10;;;;;;;;;;5179923;27;20560;-72
2022/02/27 01:45:47;;;;;;;13.25;11.88;;;;;;;;;;5161181;27;20157;-73
2022/02/27 01:48:13;;;;;;;13.88;11.80;;;;;;;;;;5169714;27;20586;-71
2022/02/27 01:50:39;;;;;;;13.40;12.00;;;;;;;;;;5196533;27;20410;-71
2022/02/27 01:53:05;;;;;;;13.68;11.52;;;;;;;;;;5182191;27;20406;-72
2022/02/27 01:55:31;;;;;;;14.20;12.10;;;;;;;;;;5201152;27;20058;-73
2022/02/27 01:57:57;;;;;;;13.40;12.00;;;;;;;;;;5201157;27;20152;-71
2022/02/27 02:00:23;;;;;;;13.32;11.95;;;;;;;;;;5181771;27;20394;-73
2022/02/27 02:02:49;;;;;;;13.90;12.45;;;;;;;;;;5181577;27;20566;-72
2022/02/27 02:05:15;;;;;;;13.68;11.50;;;;;;;;;;5181592;27;20186;-73
2022/02/27 02:07:42;;;;;;;13.02;11.63;;;;;;;;;;5181708;27;20093;-72
2022/02/27 02:10:09;;;;;;;14.45;12.85;;;;;;;;;;5181643;27;20082;-72
2022/02/27 02:12:35;;;;;;;14.00;11.95;;;;;;;;;;5182120;27;20101;-71
2022/02/27 02:15:01;;;;;;;13.05;11.48;;;;;;;;;;5181737;27;20082;-71
2022/02/27 02:17:29;;;;;;;12.63;11.20;;;;;;;;;;5200984;27;20504;-71
2022/02/27 02:19:56;;;;;;;14.40;11.70;;;;;;;;;;5181791;27;20084;-72
2022/02/27 02:22:23;;;;;;;13.95;12.45;;;;;;;;;;5181672;27;20092;-72
2022/02/27 02:24:49;;;;;;;14.45;11.63;;;;;;;;;;5200638;27;20499;-71
2022/02/27 02:27:15;;;;;;;14.90;11.93;;;;;;;;;;5164480;27;20167;-71
2022/02/27 02:29:41;;;;;;;13.57;12.10;;;;;;;;;;5181437;27;20403;-71
2022/02/27 02:32:08;;;;;;;14.48;12.70;;;;;;;;;;5199191;27;20152;-72
2022/02/27 02:34:34;;;;;;;13.95;12.55;;;;;;;;;;5200982;27;20058;-71
2022/02/27 02:37:00;;;;;;;13.62;12.23;;;;;;;;;;5200883;27;20488;-72
2022/02/27 02:39:29;;;;;;;14.20;12.77;;;;;;;;;;5181582;27;20085;-72
2022/02/27 02:41:56;;;;;;;14.07;12.40;;;;;;;;;;5201068;27;20088;-72
2022/02/27 02:44:22;;;;;;;13.95;12.27;;;;;;;;;;5201144;27;20109;-72
2022/02/27 02:46:48;;;;;;;15.50;12.48;;;;;;;;;;5182283;27;20503;-73
2022/02/27 02:49:14;;;;;;;14.05;12.25;;;;;;;;;;5201475;27;20100;-75
2022/02/27 02:51:41;;;;;;;14.77;12.55;;;;;;;;;;5163934;27;20164;-74
2022/02/27 02:54:07;;;;;;;20.55;12.55;;;;;;;;;;5181758;27;20070;-74
2022/02/27 02:56:34;;;;;;;16.95;12.65;;;;;;;;;;5181765;27;20084;-75
2022/02/27 02:59:00;;;;;;;15.68;12.73;;;;;;;;;;5164019;27;20093;-75
2022/02/27 03:01:26;;;;;;;15.82;14.13;;;;;;;;;;5200595;27;20090;-71
2022/02/27 03:03:52;;;;;;;13.98;12.40;;;;;;;;;;5161620;27;20074;-72
2022/02/27 03:06:19;;;;;;;13.62;12.23;;;;;;;;;;5181774;27;20097;-72
2022/02/27 03:08:48;;;;;;;16.98;13.90;;;;;;;;;;5181445;27;20081;-72
2022/02/27 03:11:15;;;;;;;14.73;12.75;;;;;;;;;;5163980;27;20193;-72
2022/02/27 03:13:41;;;;;;;15.07;13.05;;;;;;;;;;5200513;27;20101;-67
2022/02/27 03:16:07;;;;;;;16.33;11.40;;;;;;;;;;5200446;27;20536;-68
2022/02/27 03:18:33;;;;;;;14.05;12.10;;;;;;;;;;5181268;27;20171;-67
2022/02/27 03:21:00;;;;;;;16.10;12.15;;;;;;;;;;5181388;27;20070;-68
2022/02/27 03:23:26;;;;;;;14.10;12.18;;;;;;;;;;5201464;27;20163;-68
2022/02/27 03:25:53;;;;;;;16.83;13.02;;;;;;;;;;5182728;27;20480;-66
2022/02/27 03:28:19;;;;;;;14.73;13.13;;;;;;;;;;5201817;27;20088;-68
2022/02/27 03:30:45;;;;;;;13.73;12.27;;;;;;;;;;5182818;27;20105;-67
2022/02/27 03:33:11;;;;;;;15.13;12.13;;;;;;;;;;5201912;27;20106;-68
2022/02/27 03:35:38;;;;;;;14.82;12.88;;;;;;;;;;5201831;27;20579;-68
2022/02/27 03:38:04;;;;;;;12.23;10.82;;;;;;;;;;5201734;27;20167;-67
2022/02/27 03:40:30;;;;;;;12.73;11.43;;;;;;;;;;5201807;27;20078;-67
2022/02/27 03:42:56;;;;;;;14.35;11.60;;;;;;;;;;5201626;27;20062;-67
2022/02/27 03:45:23;;;;;;;17.05;11.55;;;;;;;;;;5201808;27;20401;-66
2022/02/27 03:47:49;;;;;;;15.38;11.77;;;;;;;;;;5201659;27;20105;-67
2022/02/27 03:50:16;;;;;;;12.50;10.82;;;;;;;;;;5201677;27;20398;-67
2022/02/27 03:52:42;;;;;;;14.07;10.43;;;;;;;;;;5182438;27;20509;-66
2022/02/27 03:55:11;;;;;;;11.02;9.93;;;;;;;;;;5201759;27;20119;-66
2022/02/27 03:57:37;;;;;;;11.93;10.55;;;;;;;;;;5201781;27;20464;-67
2022/02/27 04:00:05;;;;;;;12.05;9.80;;;;;;;;;;5201638;27;20066;-67
2022/02/27 04:02:31;;;;;;;12.65;10.55;;;;;;;;;;5182633;27;20473;-67
2022/02/27 04:04:57;;;;;;;11.68;10.48;;;;;;;;;;5201557;27;20168;-67
2022/02/27 04:07:23;;;;;;;11.30;10.18;;;;;;;;;;5201662;27;20109;-67
2022/02/27 04:09:49;;;;;;;13.10;10.50;;;;;;;;;;5201578;27;20499;-67
2022/02/27 04:12:15;;;;;;;13.05;10.38;;;;;;;;;;5182568;27;20445;-68
2022/02/27 04:14:42;;;;;;;12.18;10.88;;;;;;;;;;5182434;27;20086;-68
2022/02/27 04:17:08;;;;;;;11.85;9.77;;;;;;;;;;5201449;27;20081;-68
2022/02/27 04:19:34;;;;;;;12.52;9.77;;;;;;;;;;5201617;27;20088;-67
2022/02/27 04:22:00;;;;;;;11.52;10.10;;;;;;;;;;5201454;27;20089;-68
2022/02/27 04:24:26;;;;;;;13.27;9.63;;;;;;;;;;5201560;27;20175;-67
2022/02/27 04:26:52;;;;;;;12.35;9.93;;;;;;;;;;5201520;27;20069;-67
2022/02/27 04:29:18;;;;;;;14.07;9.77;;;;;;;;;;5201578;27;20076;-66
2022/02/27 04:31:45;;;;;;;12.52;10.10;;;;;;;;;;5201714;27;20534;-66
2022/02/27 04:34:11;;;;;;;11.00;9.60;;;;;;;;;;5182216;27;20092;-66
2022/02/27 04:36:37;;;;;;;12.98;10.60;;;;;;;;;;5182448;27;20097;-66
2022/02/27 04:39:04;;;;;;;12.40;9.70;;;;;;;;;;5201389;27;20177;-66
2022/02/27 04:41:30;;;;;;;13.43;10.25;;;;;;;;;;5201336;27;20077;-68
2022/02/27 04:43:56;;;;;;;11.38;10.18;;;;;;;;;;5201294;27;20097;-68
2022/02/27 04:46:22;;;;;;;12.88;11.18;;;;;;;;;;5201710;27;20073;-67
2022/02/27 04:48:48;;;;;;;12.75;10.73;;;;;;;;;;5201433;27;20174;-66
2022/02/27 04:51:14;;;;;;;11.60;9.63;;;;;;;;;;5181899;27;20496;-67
2022/02/27 04:53:41;;;;;;;11.77;10.45;;;;;;;;;;5201299;27;20468;-68
2022/02/27 04:56:08;;;;;;;12.10;10.75;;;;;;;;;;5182408;27;20076;-67
2022/02/27 04:58:34;;;;;;;11.43;10.23;;;;;;;;;;5201226;27;20066;-67
2022/02/27 05:01:00;;;;;;;12.32;10.15;;;;;;;;;;5201211;27;20148;-67
2022/02/27 05:03:26;;;;;;;12.13;9.90;;;;;;;;;;5201154;27;20077;-68
2022/02/27 05:05:52;;;;;;;10.80;9.48;;;;;;;;;;5201461;27;20080;-68
2022/02/27 05:08:18;;;;;;;10.63;9.50;;;;;;;;;;5201271;27;20327;-69
2022/02/27 05:10:44;;;;;;;10.75;9.55;;;;;;;;;;5164897;27;20449;-69
2022/02/27 05:13:10;;;;;;;12.63;9.77;;;;;;;;;;5192586;27;20536;-68
2022/02/27 05:15:37;;;;;;;13.75;10.23;;;;;;;;;;5201241;27;20472;-67
2022/02/27 05:18:03;;;;;;;11.30;10.13;;;;;;;;;;5201144;27;20102;-67
2022/02/27 05:20:29;;;;;;;15.63;11.12;;;;;;;;;;5199515;27;20480;-68
2022/02/27 05:22:55;;;;;;;12.48;10.73;;;;;;;;;;5200895;27;20075;-67
2022/02/27 05:25:22;;;;;;;12.63;9.55;;;;;;;;;;5181809;27;20072;-68
2022/02/27 05:27:51;;;;;;;11.07;9.90;;;;;;;;;;5181801;27;20078;-67
2022/02/27 05:30:21;;;;;;;13.73;9.52;;;;;;;;;;5182013;27;20065;-69
2022/02/27 05:32:47;;;;;;;13.32;9.55;;;;;;;;;;5201184;27;20178;-68
2022/02/27 05:35:14;;;;;;;13.10;9.10;;;;;;;;;;5181399;27;20081;-67
2022/02/27 05:37:40;;;;;;;10.68;9.57;;;;;;;;;;5182071;27;20073;-66
2022/02/27 05:40:06;;;;;;;11.82;9.73;;;;;;;;;;5164311;27;20192;-68
2022/02/27 05:42:33;;;;;;;11.98;9.32;;;;;;;;;;5164836;27;20077;-68
2022/02/27 05:45:00;;;;;;;12.90;9.90;;;;;;;;;;5163728;27;20095;-67
2022/02/27 05:47:26;;;;;;;10.35;9.07;;;;;;;;;;5164739;27;20164;-68
2022/02/27 05:49:53;;;;;;;10.90;9.15;;;;;;;;;;5200802;27;20084;-67
2022/02/27 05:52:22;;;;;;;10.32;9.27;;;;;;;;;;5200883;27;20081;-69
2022/02/27 05:54:48;;;;;;;11.35;9.65;;;;;;;;;;5200697;27;20508;-66
2022/02/27 05:57:15;;;;;;;11.65;9.38;;;;;;;;;;5200695;27;20178;-67
2022/02/27 05:59:41;;;;;;;11.93;9.93;;;;;;;;;;5181811;27;20179;-67
2022/02/27 06:02:07;;;;;;;12.07;9.50;;;;;;;;;;5200959;27;20097;-67
2022/02/27 06:04:33;;;;;;;11.95;9.38;;;;;;;;;;5200753;27;20101;-67
2022/02/27 06:07:02;;;;;;;13.48;10.10;;;;;;;;;;5200659;27;20440;-67
2022/02/27 06:09:28;;;;;;;12.27;9.95;;;;;;;;;;5181749;27;20070;-66
2022/02/27 06:11:55;;;;;;;12.23;9.88;;;;;;;;;;5200449;27;20094;-64
2022/02/27 06:14:21;;;;;;;11.00;9.73;;;;;;;;;;5200642;27;20084;-67
2022/02/27 06:16:47;;;;;;;14.60;10.10;;;;;;;;;;5200544;27;20193;-69
2022/02/27 06:19:13;;;;;;;13.73;10.65;;;;;;;;;;5200916;27;20617;-67
2022/02/27 06:21:40;;;;;;;12.43;8.55;;;;;;;;;;5181475;27;20524;-66
2022/02/27 06:24:06;;;;;;;9.48;7.62;;;;;;;;;;5200375;27;20909;-67
2022/02/27 06:26:34;;;;;;;10.10;8.45;;;;;;;;;;5200911;27;20085;-64
2022/02/27 06:29:02;;;;;;;10.45;8.13;;;;;;;;;;5200636;27;20167;-63
2022/02/27 06:31:34;;;;;;;10.00;8.40;;;;;;;;;;5181205;27;20173;-65
2022/02/27 06:34:00;;;;;;;11.80;9.20;;;;;;;;;;5164179;27;20231;-65
2022/02/27 06:36:26;;;;;;;11.85;9.77;;;;;;;;;;5200451;27;20669;-65
2022/02/27 06:38:52;;;;;;;10.75;8.75;;;;;;;;;;5200452;27;20109;-68
2022/02/27 06:41:18;;;;;;;11.18;8.85;;;;;;;;;;5181131;27;20058;-67
2022/02/27 06:43:44;;;;;;;10.40;8.85;;;;;;;;;;5200381;27;20511;-65
2022/02/27 06:46:11;;;;;;;9.23;8.18;;;;;;;;;;5181582;27;20071;-63
2022/02/27 06:48:37;;;;;;;10.10;8.13;;;;;;;;;;5164102;27;20117;-65
2022/02/27 06:51:03;;;;;;;11.12;8.07;;;;;;;;;;5200500;27;20894;-64
2022/02/27 06:53:29;;;;;;;10.45;8.88;;;;;;;;;;5181486;27;20085;-64
2022/02/27 06:55:55;;;;;;;9.25;8.27;;;;;;;;;;5181232;27;20176;-64
2022/02/27 06:58:21;;;;;;;10.18;8.52;;;;;;;;;;5181346;27;20482;-65
2022/02/27 07:00:48;;;;;;;10.85;8.40;;;;;;;;;;5200464;27;20084;-63
2022/02/27 07:03:14;;;;;;;10.57;8.23;;;;;;;;;;5200502;27;20073;-67
2022/02/27 07:05:40;;;;;;;9.35;7.70;;;;;;;;;;5200479;27;20097;-65
2022/02/27 07:08:06;;;;;;;14.32;9.23;;;;;;;;;;5181423;27;20152;-65
2022/02/27 07:10:40;;;;;;;10.20;8.02;;;;;;;;;;5200437;27;20287;-65
2022/02/27 07:13:08;;;;;;;9.77;8.25;;;;;;;;;;5200785;27;20073;-66
2022/02/27 07:15:34;;;;;;;10.23;7.57;;;;;;;;;;5181026;27;20093;-66
2022/02/27 07:18:02;;;;;;;9.88;8.05;;;;;;;;;;5200313;27;20179;-65
2022/02/27 07:20:30;;;;;;;9.32;8.35;;;;;;;;;;5200054;27;20108;-65
2022/02/27 07:22:56;;;;;;;14.55;8.35;;;;;;;;;;5200114;27;20534;-65
2022/02/27 07:25:22;;;;;;;9.48;8.27;;;;;;;;;;5200036;27;20179;-63
2022/02/27 07:27:48;;;;;;;9.32;7.90;;;;;;;;;;5200402;27;20081;-66
2022/02/27 07:30:14;;;;;;;12.40;7.87;;;;;;;;;;5180799;27;20606;-63
2022/02/27 07:32:40;;;;;;;9.32;8.07;;;;;;;;;;5200116;27;20088;-64
2022/02/27 07:35:07;;;;;;;12.82;7.62;;;;;;;;;;5200063;27;20169;-65
2022/02/27 07:37:36;;;;;;;9.57;7.95;;;;;;;;;;5181001;27;20496;-63
2022/02/27 07:40:05;;;;;;;9.35;7.22;;;;;;;;;;5200006;27;20072;-63
2022/02/27 07:42:32;;;;;;;9.43;8.02;;;;;;;;;;5200423;27;20100;-64
2022/02/27 07:44:58;;;;;;;13.62;8.32;;;;;;;;;;5200064;27;20089;-64
2022/02/27 07:47:24;;;;;;;9.20;8.13;;;;;;;;;;5200384;27;20484;-65
2022/02/27 07:49:50;;;;;;;8.63;7.40;;;;;;;;;;5200443;27;20223;-65
2022/02/27 07:52:16;;;;;;;8.82;7.60;;;;;;;;;;5200403;27;20089;-65
2022/02/27 07:54:42;;;;;;;8.98;7.80;;;;;;;;;;5200226;27;20101;-64
2022/02/27 07:57:08;;;;;;;8.50;7.60;;;;;;;;;;5200453;27;20082;-64
2022/02/27 07:59:34;;;;;;;9.85;8.75;;;;;;;;;;5200212;27;20101;-64
2022/02/27 08:02:00;;;;;;;8.60;7.60;;;;;;;;;;5181126;27;20481;-59
2022/02/27 08:04:27;;;;;;;13.20;8.40;;;;;;;;;;5200222;27;20488;-60
2022/02/27 08:06:53;;;;;;;14.82;7.60;;;;;;;;;;5200395;27;20085;-63
2022/02/27 08:09:19;;;;;;;9.18;7.20;;;;;;;;;;5201271;27;20077;-60
2022/02/27 08:11:45;;;;;;;9.20;7.03;;;;;;;;;;5201365;27;20096;-60
2022/02/27 08:14:11;;;;;;;9.95;7.35;;;;;;;;;;5201429;27;20103;-61
2022/02/27 08:16:37;;;;;;;10.77;7.40;;;;;;;;;;5201282;27;20078;-60
2022/02/27 08:19:03;;;;;;;8.10;6.75;;;;;;;;;;5182532;27;20093;-61
2022/02/27 08:21:29;;;;;;;8.77;7.35;;;;;;;;;;5201458;27;20171;-61
2022/02/27 08:23:55;;;;;;;10.18;7.53;;;;;;;;;;5201164;27;20104;-62
2022/02/27 08:26:21;;;;;;;10.90;7.03;;;;;;;;;;5201471;27;20496;-62
2022/02/27 08:28:47;;;;;;;8.45;7.25;;;;;;;;;;5201431;27;20512;-65
2022/02/27 08:31:13;;;;;;;11.10;7.80;;;;;;;;;;5201296;27;20491;-61
2022/02/27 08:33:39;;;;;;;10.63;8.43;;;;;;;;;;5182538;27;20094;-61
2022/02/27 08:36:05;;;;;;;9.77;7.60;;;;;;;;;;5201286;27;20110;-62
2022/02/27 08:38:31;;;;;;;12.27;7.85;;;;;;;;;;5200870;27;20157;-62
2022/02/27 08:40:57;;;;;;;11.15;8.27;;;;;;;;;;5201202;27;20076;-61
2022/02/27 08:43:24;;;;;;;8.93;7.78;;;;;;;;;;5201304;27;20105;-60
2022/02/27 08:45:50;;;;;;;12.30;8.38;;;;;;;;;;5201345;27;20473;-61
2022/02/27 08:48:16;;;;;;;10.45;9.30;;;;;;;;;;5201236;27;20077;-61
2022/02/27 08:50:42;;;;;;;12.43;9.77;;;;;;;;;;5201200;27;20066;-61
2022/02/27 08:53:08;;;;;;;11.35;8.68;;;;;;;;;;5201504;27;20089;-61
2022/02/27 08:55:34;;;;;;;9.65;8.65;;;;;;;;;;5201291;27;20081;-61
2022/02/27 08:58:00;;;;;;;12.07;8.98;;;;;;;;;;5201222;27;20113;-60
2022/02/27 09:00:26;;;;;;;12.07;8.60;;;;;;;;;;5164216;27;20092;-61
2022/02/27 09:02:53;;;;;;;11.75;9.80;;;;;;;;;;5200783;27;20089;-61
2022/02/27 09:05:19;;;;;;;13.45;9.60;;;;;;;;;;5200940;27;20105;-62
2022/02/27 09:07:45;;;;;;;12.40;9.65;;;;;;;;;;5201030;27;20287;-61
2022/02/27 09:10:12;;;;;;;11.52;9.48;;;;;;;;;;5192235;27;20120;-61
2022/02/27 09:12:43;;;;;;;11.82;8.70;;;;;;;;;;5201013;27;20398;-61
2022/02/27 09:15:10;;;;;;;11.68;8.98;;;;;;;;;;5181550;27;20513;-61
2022/02/27 09:17:36;;;;;;;13.62;8.68;;;;;;;;;;5201022;27;20069;-61
2022/02/27 09:20:07;;;;;;;16.35;9.48;;;;;;;;;;5200657;27;20084;-61
2022/02/27 09:22:33;;;;;;;11.38;9.05;;;;;;;;;;5200974;27;20070;-61
2022/02/27 09:24:59;;;;;;;15.18;10.82;;;;;;;;;;5200388;27;20074;-62
2022/02/27 09:27:25;;;;;;;10.60;9.45;;;;;;;;;;5200952;27;20061;-62
2022/02/27 09:29:51;;;;;;;12.63;9.10;;;;;;;;;;5200746;27;20171;-60
2022/02/27 09:32:17;;;;;;;13.48;9.73;;;;;;;;;;5201068;27;20244;-61
2022/02/27 09:34:43;;;;;;;10.00;8.43;;;;;;;;;;5200939;27;20074;-61
2022/02/27 09:37:09;;;;;;;9.65;8.68;;;;;;;;;;5181657;27;20485;-62
2022/02/27 09:39:37;;;;;;;10.25;8.55;;;;;;;;;;5200872;27;20519;-60
2022/02/27 09:42:04;;;;;;;9.70;8.70;;;;;;;;;;5200776;27;20422;-60
2022/02/27 09:44:39;;;;;;;14.70;9.05;;;;;;;;;;5200864;27;20066;-60
2022/02/27 09:47:11;;;;;;;9.35;8.13;;;;;;;;;;5200797;27;20082;-59
2022/02/27 09:49:40;;;;;;;11.82;9.00;;;;;;;;;;5181460;27;20160;-60
2022/02/27 09:52:06;;;;;;;12.18;9.35;;;;;;;;;;5200519;27;20254;-60
2022/02/27 09:54:34;;;;;;;10.45;8.57;;;;;;;;;;5200769;27;20093;-60
2022/02/27 09:57:00;;;;;;;10.88;8.20;;;;;;;;;;5200436;27;20101;-60
2022/02/27 09:59:26;;;;;;;12.05;9.10;;;;;;;;;;5200674;27;20077;-60
2022/02/27 10:02:01;;;;;;;11.82;9.05;;;;;;;;;;5201035;27;20167;-61
2022/02/27 10:04:41;;;;;;;11.93;9.48;;;;;;;;;;5181399;27;20056;-61
2022/02/27 10:07:08;;;;;;;9.60;8.35;;;;;;;;;;5181484;27;20179;-61
2022/02/27 10:09:35;;;;;;;10.15;8.88;;;;;;;;;;5200776;27;20085;-61
2022/02/27 10:12:23;;;;;;;12.15;9.82;;;;;;;;;;5200494;27;20081;-60
2022/02/27 10:15:06;;;;;;;11.73;9.13;;;;;;;;;;5200642;27;20081;-59
2022/02/27 10:17:36;;;;;;;14.50;10.07;;;;;;;;;;5200747;27;20461;-61
2022/02/27 10:20:11;;;;;;;14.52;9.52;;;;;;;;;;5200451;27;20054;-59
2022/02/27 10:22:48;;;;;;;10.70;9.23;;;;;;;;;;5200270;27;20433;-62
2022/02/27 10:25:25;;;;;;;10.63;9.02;;;;;;;;;;5200170;27;20192;-61
2022/02/27 10:27:57;;;;;;;11.35;9.73;;;;;;;;;;5200406;27;20164;-61
2022/02/27 10:30:31;;;;;;;12.80;9.32;;;;;;;;;;5200393;27;20080;-61
2022/02/27 10:33:05;;;;;;;13.82;10.10;;;;;;;;;;5200511;27;20516;-61
2022/02/27 10:35:44;;;;;;;12.73;9.63;;;;;;;;;;5200511;27;20104;-61
2022/02/27 10:38:16;;;;;;;13.30;10.02;;;;;;;;;;5200426;27;20094;-61
2022/02/27 10:40:47;;;;;;;13.02;9.63;;;;;;;;;;5180457;27;20167;-61
2022/02/27 10:43:15;;;;;;;11.07;9.35;;;;;;;;;;5199728;27;20066;-62
2022/02/27 10:45:42;;;;;;;10.38;9.27;;;;;;;;;;5198965;27;20092;-62
2022/02/27 10:48:12;;;;;;;13.05;9.57;;;;;;;;;;5199612;27;20089;-61
2022/02/27 10:50:38;;;;;;;13.62;10.20;;;;;;;;;;5199641;27;20148;-61
2022/02/27 10:53:05;;;;;;;11.30;8.98;;;;;;;;;;5199539;27;20070;-62
2022/02/27 10:55:32;;;;;;;12.52;9.85;;;;;;;;;;5199525;27;20064;-61
2022/02/27 10:57:59;;;;;;;10.38;9.27;;;;;;;;;;5199977;27;20066;-61
2022/02/27 11:00:37;;;;;;;12.18;10.07;;;;;;;;;;5200081;27;20085;-68
2022/02/27 11:03:10;;;;;;;15.20;9.63;;;;;;;;;;5200350;27;20072;-61
2022/02/27 11:05:41;;;;;;;13.07;9.77;;;;;;;;;;5180965;27;20160;-70
2022/02/27 11:08:10;;;;;;;12.43;10.27;;;;;;;;;;5181162;27;20833;-77
2022/02/27 11:10:38;;;;;;;12.88;9.98;;;;;;;;;;5164477;27;20073;-68
2022/02/27 11:13:07;;;;;;;11.77;9.90;;;;;;;;;;5181504;27;20652;-74
2022/02/27 11:15:33;;;;;;;12.75;10.13;;;;;;;;;;5181076;27;20097;-74
2022/02/27 11:17:59;;;;;;;10.60;9.27;;;;;;;;;;5200742;27;20183;-74
2022/02/27 11:20:26;;;;;;;10.75;9.20;;;;;;;;;;5180830;27;20086;-72
2022/02/27 11:22:53;;;;;;;12.57;9.65;;;;;;;;;;5146033;27;20395;-68
2022/02/27 11:25:20;;;;;;;13.68;9.93;;;;;;;;;;5180316;27;20492;-69
2022/02/27 11:27:52;;;;;;;14.25;10.32;;;;;;;;;;5199621;27;20081;-72
2022/02/27 11:30:28;;;;;;;10.50;9.40;;;;;;;;;;5163231;27;20081;-70
2022/02/27 11:33:01;;;;;;;21.23;10.23;;;;;;;;;;5200636;27;20093;-69
2022/02/27 11:35:33;;;;;;;11.45;9.80;;;;;;;;;;5181322;27;20262;-69
2022/02/27 11:37:59;;;;;;;10.65;8.85;;;;;;;;;;5200639;27;20096;-70
2022/02/27 11:40:28;;;;;;;10.15;9.20;;;;;;;;;;5200083;27;20492;-68
2022/02/27 11:42:55;;;;;;;12.90;9.02;;;;;;;;;;5164726;27;20094;-70
2022/02/27 11:45:37;;;;;;;10.63;9.52;;;;;;;;;;5182097;27;20066;-69
2022/02/27 11:48:04;;;;;;;11.00;9.45;;;;;;;;;;5182452;27;20073;-68
2022/02/27 11:50:35;;;;;;;11.15;8.55;;;;;;;;;;5182219;27;20076;-68
2022/02/27 11:53:20;;;;;;;9.68;8.65;;;;;;;;;;5182369;27;20106;-65
2022/02/27 11:55:46;;;;;;;13.23;8.95;;;;;;;;;;5200350;27;20474;-69
2022/02/27 11:58:34;;;;;;;12.02;8.55;;;;;;;;;;5200688;27;20081;-69
2022/02/27 12:01:03;;;;;;;9.57;7.53;;;;;;;;;;5181022;27;20180;-71
2022/02/27 12:03:29;;;;;;;9.50;8.32;;;;;;;;;;5181714;27;20501;-72
2022/02/27 12:05:56;;;;;;;11.82;8.20;;;;;;;;;;5201370;27;20101;-72
2022/02/27 12:08:54;;;;;;;9.55;7.78;;;;;;;;;;5182589;27;20089;-71
2022/02/27 12:11:29;;;;;;;10.95;7.75;;;;;;;;;;5089303;27;20090;-70
2022/02/27 12:14:02;;;;;;;12.25;8.55;;;;;;;;;;5200019;27;20511;-72
2022/02/27 12:16:40;;;;;;;11.38;8.50;;;;;;;;;;5199973;27;20098;-73
2022/02/27 12:19:31;;;;;;;11.57;10.05;;;;;;;;;;5182250;27;20058;-72
2022/02/27 12:22:01;;;;;;;11.80;10.60;;;;;;;;;;5201205;27;20088;-72
2022/02/27 12:24:32;;;;;;;14.45;11.43;;;;;;;;;;5164838;27;20540;-71
2022/02/27 12:26:57;;;;;;;26.40;19.17;;;;;;;;;;5181928;27;20082;-71
2022/02/27 12:29:33;;;;;;;14.95;12.37;;;;;;;;;;5201439;27;20097;-71
2022/02/27 12:32:18;;;;;;;11.60;10.27;;;;;;;;;;5182393;27;20084;-72
2022/02/27 12:34:50;;;;;;;12.57;9.73;;;;;;;;;;5201378;27;20203;-70
2022/02/27 12:37:17;;;;;;;13.07;8.98;;;;;;;;;;5164706;27;20081;-72
2022/02/27 12:39:45;;;;;;;12.52;9.05;;;;;;;;;;5182241;27;20173;-73
2022/02/27 12:42:15;;;;;;;9.40;8.02;;;;;;;;;;5147731;27;20191;-72
2022/02/27 12:44:43;;;;;;;11.68;10.05;;;;;;;;;;5147430;27;20085;-73
2022/02/27 12:47:14;;;;;;;9.93;9.02;;;;;;;;;;5200940;27;20432;-73
2022/02/27 12:52:34;;;;;;;9.15;7.82;;;;;;;;;;5167408;27;20088;-73
2022/02/27 12:55:00;;;;;;;10.75;8.80;;;;;;;;;;5164077;27;20176;-74
2022/02/27 12:57:27;;;;;;;12.80;9.27;;;;;;;;;;5164922;27;20163;-75
2022/02/27 12:59:53;;;;;;;10.27;8.02;;;;;;;;;;5201019;27;20072;-75
2022/02/27 13:02:25;;;;;;;10.40;7.95;;;;;;;;;;5164268;27;20116;-77
2022/02/27 13:05:01;;;;;;;8.27;7.18;;;;;;;;;;5164456;27;20077;-74
2022/02/27 13:07:28;;;;;;;9.65;8.65;;;;;;;;;;5182083;27;20066;-74
2022/02/27 13:09:55;;;;;;;9.02;7.97;;;;;;;;;;5200957;27;20082;-74
2022/02/27 13:12:25;;;;;;;10.43;8.77;;;;;;;;;;5164439;27;20074;-75
2022/02/27 13:14:56;;;;;;;9.45;7.97;;;;;;;;;;5165289;27;20073;-74
2022/02/27 13:17:25;;;;;;;11.55;8.48;;;;;;;;;;5182179;27;20661;-74
2022/02/27 13:19:53;;;;;;;9.90;7.40;;;;;;;;;;5181705;27;20093;-74
2022/02/27 13:22:27;;;;;;;9.75;7.90;;;;;;;;;;5184370;27;20093;-75
2022/02/27 13:24:55;;;;;;;8.70;7.68;;;;;;;;;;5181588;27;20069;-73
2022/02/27 13:27:29;;;;;;;10.38;7.57;;;;;;;;;;5163997;27;20081;-74
2022/02/27 13:30:04;;;;;;;9.90;8.13;;;;;;;;;;5181817;27;20089;-74
2022/02/27 13:32:36;;;;;;;8.63;7.72;;;;;;;;;;5200987;27;20110;-74
2022/02/27 13:35:03;;;;;;;9.40;8.40;;;;;;;;;;5181620;27;20153;-75
2022/02/27 13:37:32;;;;;;;10.73;8.40;;;;;;;;;;5164258;27;20101;-75
2022/02/27 13:40:06;;;;;;;13.18;9.15;;;;;;;;;;5164435;27;20175;-75
2022/02/27 13:42:32;;;;;;;12.40;9.75;;;;;;;;;;5200866;27;20653;-74
2022/02/27 13:45:00;;;;;;;10.05;9.02;;;;;;;;;;5181651;27;20171;-74
2022/02/27 13:47:30;;;;;;;8.52;7.20;;;;;;;;;;5181876;27;20189;-73
2022/02/27 13:49:57;;;;;;;8.30;6.40;;;;;;;;;;5200831;27;20188;-76
2022/02/27 13:52:24;;;;;;;8.95;6.68;;;;;;;;;;5164185;27;20178;-73
2022/02/27 13:54:52;;;;;;;9.68;6.50;;;;;;;;;;5181539;27;20085;-72
2022/02/27 13:57:19;;;;;;;7.70;6.40;;;;;;;;;;5164059;27;20148;-73
2022/02/27 13:59:47;;;;;;;8.63;7.00;;;;;;;;;;5181180;27;20165;-74
2022/02/27 14:02:36;;;;;;;7.03;6.32;;;;;;;;;;5182015;27;20081;-75
2022/02/27 14:05:09;;;;;;;6.35;5.75;;;;;;;;;;5181674;27;20065;-74
2022/02/27 14:07:37;;;;;;;7.30;5.85;;;;;;;;;;5163897;27;20156;-72
2022/02/27 14:10:05;;;;;;;7.43;6.00;;;;;;;;;;5181170;27;20065;-72
2022/02/27 14:12:35;;;;;;;6.57;5.60;;;;;;;;;;5200789;27;20711;-72
2022/02/27 14:15:03;;;;;;;9.05;6.05;;;;;;;;;;5180526;27;20163;-74
2022/02/27 14:17:30;;;;;;;6.47;5.65;;;;;;;;;;5164134;27;20145;-69
2022/02/27 14:20:06;;;;;;;7.05;6.00;;;;;;;;;;5163776;27;20082;-73
2022/02/27 14:22:37;;;;;;;7.68;6.47;;;;;;;;;;5181244;27;20082;-73
2022/02/27 14:25:04;;;;;;;6.70;6.00;;;;;;;;;;5181007;27;20081;-71
2022/02/27 14:27:30;;;;;;;6.70;5.90;;;;;;;;;;5181507;27;20089;-69
2022/02/27 14:29:56;;;;;;;7.28;6.05;;;;;;;;;;5200157;27;20473;-76
2022/02/27 14:32:33;;;;;;;8.00;5.75;;;;;;;;;;5163627;27;20062;-77
2022/02/27 14:35:04;;;;;;;7.75;5.95;;;;;;;;;;5181241;27;20186;-76
2022/02/27 14:37:30;;;;;;;6.80;6.10;;;;;;;;;;5181990;27;20426;-72
2022/02/27 14:40:15;;;;;;;7.00;5.85;;;;;;;;;;5163748;27;20097;-74
2022/02/27 14:42:41;;;;;;;8.73;6.25;;;;;;;;;;5200096;27;20062;-75
2022/02/27 14:45:08;;;;;;;7.28;6.10;;;;;;;;;;5200430;27;20178;-73
2022/02/27 14:47:34;;;;;;;7.80;6.05;;;;;;;;;;5180248;27;20097;-73
2022/02/27 14:50:01;;;;;;;7.82;6.28;;;;;;;;;;5162630;27;20101;-73
2022/02/27 14:52:27;;;;;;;9.55;6.20;;;;;;;;;;5179365;27;20171;-70
2022/02/27 14:54:53;;;;;;;7.00;5.80;;;;;;;;;;5198686;27;20422;-69